Time;durP1;ratioP1;P1;durP2;ratioP2;P2;SDS_P1;SDS_P2;PMS_P1;PMS_P2;Temp;Humidity;BMP_temperature;BMP_pressure;BME280_temperature;BME280_humidity;BME280_pressure;Samples;Min_cycle;Max_cycle;Signal;HPM_P1;HPM_P2
2021/12/24 00:00:11;;;;;;;;;;;2.00;99.90;;;;;;5067837;28;20006;-85
2021/12/24 00:02:37;;;;;;;;;;;2.10;99.90;;;;;;5082362;28;19912;-84
2021/12/24 00:05:03;;;;;;;;;;;2.20;99.90;;;;;;5087414;28;19915;-85
2021/12/24 00:07:28;;;;;;;;;;;2.30;99.90;;;;;;5084511;28;19958;-84
2021/12/24 00:09:54;;;;;;;;;;;2.30;99.90;;;;;;5065574;28;20317;-84
2021/12/24 00:12:22;;;;;;;;;;;2.30;99.90;;;;;;5081222;28;19915;-84
2021/12/24 00:14:52;;;;;;;;;;;2.40;99.90;;;;;;5080790;28;19908;-84
2021/12/24 00:17:23;;;;;;;;;;;2.40;99.90;;;;;;5066814;28;19955;-83
2021/12/24 00:20:28;;;;;;;;;;;2.40;99.90;;;;;;5088760;28;19965;-82
2021/12/24 00:36:30;;;;;;;;;;;2.70;99.90;;;;;;5082109;28;19923;-85
2021/12/24 00:38:57;;;;;;;;;;;2.70;99.90;;;;;;5066093;28;19916;-80
2021/12/24 00:41:22;;;;;;;;;;;2.70;99.90;;;;;;5081314;28;19966;-83
2021/12/24 00:43:48;;;;;;;;;;;2.70;99.90;;;;;;5066609;28;19916;-83
2021/12/24 00:46:13;;;;;;;;;;;2.70;99.90;;;;;;5082725;28;19908;-82
2021/12/24 00:48:39;;;;;;;;;;;2.70;99.90;;;;;;5065821;28;20283;-83
2021/12/24 00:55:59;;;;;;;;;;;2.90;99.90;;;;;;5063770;28;19928;-83
2021/12/24 00:58:25;;;;;;;;;;;2.90;99.90;;;;;;5063255;28;20423;-83
2021/12/24 01:00:50;;;;;;;;;;;2.90;99.90;;;;;;5060251;28;20011;-81
2021/12/24 01:03:16;;;;;;;;;;;3.00;99.90;;;;;;5084256;28;19908;-82
2021/12/24 01:05:42;;;;;;;;;;;3.00;99.90;;;;;;5084355;28;20282;-83
2021/12/24 01:08:08;;;;;;;;;;;2.90;99.90;;;;;;5084289;28;19916;-82
2021/12/24 01:10:36;;;;;;;;;;;2.90;99.90;;;;;;5084593;28;19931;-83
2021/12/24 01:13:02;;;;;;;;;;;2.90;99.90;;;;;;5063800;28;19913;-83
2021/12/24 01:15:29;;;;;;;;;;;2.80;99.90;;;;;;5081119;28;19914;-83
2021/12/24 01:20:52;;;;;;;;;;;2.70;99.90;;;;;;5082035;28;19916;-84
2021/12/24 01:23:40;;;;;;;;;;;2.80;99.90;;;;;;5083571;28;19919;-80
2021/12/24 01:26:11;;;;;;;;;;;2.90;99.90;;;;;;5068012;28;19955;-81
2021/12/24 01:42:47;;;;;;;;;;;2.70;99.90;;;;;;5041980;28;20269;-82
2021/12/24 01:45:16;;;;;;;;;;;2.80;99.90;;;;;;5083783;28;19916;-84
2021/12/24 01:47:42;;;;;;;;;;;2.80;99.90;;;;;;5070259;28;19908;-85
2021/12/24 01:50:07;;;;;;;;;;;2.80;99.90;;;;;;5092721;28;19973;-82
2021/12/24 01:52:33;;;;;;;;;;;2.80;99.90;;;;;;5075310;28;20398;-82
2021/12/24 01:54:59;;;;;;;;;;;2.90;99.90;;;;;;5085833;28;20391;-82
2021/12/24 01:57:24;;;;;;;;;;;2.80;99.90;;;;;;5084033;28;19912;-82
2021/12/24 01:59:51;;;;;;;;;;;3.00;99.90;;;;;;5069099;28;20333;-81
2021/12/24 02:02:17;;;;;;;;;;;3.00;99.90;;;;;;5084778;28;19912;-82
2021/12/24 02:04:42;;;;;;;;;;;3.10;99.90;;;;;;5087258;28;19962;-82
2021/12/24 02:07:08;;;;;;;;;;;3.20;99.90;;;;;;5064569;28;19916;-82
2021/12/24 02:09:34;;;;;;;;;;;3.10;99.90;;;;;;5067362;28;19939;-82
2021/12/24 02:12:00;;;;;;;;;;;3.30;99.90;;;;;;5065839;28;20379;-82
2021/12/24 02:14:33;;;;;;;;;;;3.20;99.90;;;;;;5066150;28;19908;-83
2021/12/24 02:30:33;;;;;;;;;;;3.30;99.90;;;;;;5085140;28;20374;-83
2021/12/24 02:32:58;;;;;;;;;;;3.40;99.90;;;;;;5085236;28;19908;-82
2021/12/24 02:35:24;;;;;;;;;;;3.50;99.90;;;;;;5087423;28;19914;-83
2021/12/24 02:37:50;;;;;;;;;;;3.50;99.90;;;;;;5087015;28;20377;-82
2021/12/24 02:40:15;;;;;;;;;;;3.50;99.90;;;;;;5065511;28;19934;-82
2021/12/24 02:42:47;;;;;;;;;;;3.50;99.90;;;;;;5067486;28;19928;-81
2021/12/24 02:45:13;;;;;;;;;;;3.50;99.90;;;;;;5068927;28;19970;-81
2021/12/24 02:47:54;;;;;;;;;;;3.60;99.90;;;;;;5065643;28;20137;-82
2021/12/24 02:55:30;;;;;;;;;;;3.40;99.90;;;;;;5083755;28;20279;-83
2021/12/24 02:57:56;;;;;;;;;;;3.50;99.90;;;;;;5083667;28;19912;-81
2021/12/24 03:00:26;;;;;;;;;;;3.60;99.90;;;;;;5082975;28;20425;-82
2021/12/24 03:02:52;;;;;;;;;;;3.50;99.90;;;;;;5085682;28;20355;-82
2021/12/24 03:05:20;;;;;;;;;;;3.40;99.90;;;;;;5082645;28;19912;-85
2021/12/24 03:07:45;;;;;;;;;;;3.40;99.90;;;;;;5068161;28;20325;-81
2021/12/24 03:10:15;;;;;;;;;;;3.40;99.90;;;;;;5066804;28;20032;-81
2021/12/24 03:12:43;;;;;;;;;;;3.30;99.90;;;;;;5088391;28;19912;-81
2021/12/24 03:15:10;;;;;;;;;;;3.40;99.90;;;;;;5085385;28;19912;-81
2021/12/24 03:17:35;;;;;;;;;;;3.40;99.90;;;;;;5069642;28;19988;-82
2021/12/24 03:20:07;;;;;;;;;;;3.40;99.90;;;;;;5086145;28;20286;-83
2021/12/24 03:25:13;;;;;;;;;;;3.50;99.90;;;;;;5082268;28;20030;-78
2021/12/24 03:27:39;;;;;;;;;;;3.50;99.90;;;;;;5067816;28;19966;-83
2021/12/24 03:30:05;;;;;;;;;;;3.50;99.90;;;;;;5083170;28;19908;-83
2021/12/24 03:32:31;;;;;;;;;;;3.50;99.90;;;;;;5080001;28;19935;-81
2021/12/24 03:34:57;;;;;;;;;;;3.60;99.90;;;;;;5067103;28;20379;-83
2021/12/24 03:37:22;;;;;;;;;;;3.60;99.90;;;;;;5081752;28;20287;-81
2021/12/24 03:39:48;;;;;;;;;;;3.70;99.90;;;;;;5085606;28;20375;-80
2021/12/24 03:42:13;;;;;;;;;;;3.70;99.90;;;;;;5080987;28;19924;-80
2021/12/24 03:44:44;;;;;;;;;;;3.80;99.90;;;;;;5083964;28;19916;-82
2021/12/24 03:47:16;;;;;;;;;;;3.80;99.90;;;;;;5086557;28;19916;-81
2021/12/24 03:54:58;;;;;;;;;;;3.70;99.90;;;;;;5082320;28;19954;-83
2021/12/24 03:57:30;;;;;;;;;;;3.80;99.90;;;;;;5066436;28;19912;-82
2021/12/24 03:59:57;;;;;;;;;;;3.70;99.90;;;;;;5064216;28;19931;-81
2021/12/24 04:02:23;;;;;;;;;;;3.80;99.90;;;;;;5065554;28;19918;-82
2021/12/24 04:04:49;;;;;;;;;;;3.80;99.90;;;;;;5085110;28;20349;-80
2021/12/24 04:07:15;;;;;;;;;;;3.70;99.90;;;;;;5080958;28;19916;-80
2021/12/24 04:09:54;;;;;;;;;;;3.80;99.90;;;;;;5049195;28;20398;-82
2021/12/24 04:12:20;;;;;;;;;;;3.80;99.90;;;;;;5080616;28;19926;-81
2021/12/24 04:14:45;;;;;;;;;;;3.80;99.90;;;;;;5064697;28;20367;-84
2021/12/24 04:17:11;;;;;;;;;;;3.70;99.90;;;;;;5085787;28;19964;-83
2021/12/24 04:25:05;;;;;;;;;;;3.60;99.90;;;;;;5089982;28;20386;-82
2021/12/24 04:27:31;;;;;;;;;;;3.80;99.90;;;;;;5073994;28;19913;-81
2021/12/24 04:30:09;;;;;;;;;;;3.90;99.90;;;;;;5070202;28;19968;-81
2021/12/24 04:33:01;;;;;;;;;;;3.80;99.90;;;;;;5069523;28;19939;-82
2021/12/24 04:51:29;;;;;;;;;;;4.00;99.90;;;;;;5082242;28;20383;-82
2021/12/24 05:02:37;;;;;;;;;;;4.10;99.90;;;;;;5066679;28;19962;-82
2021/12/24 05:05:22;;;;;;;;;;;4.00;99.90;;;;;;5081149;28;20288;-81
2021/12/24 05:08:14;;;;;;;;;;;4.10;99.90;;;;;;5062600;28;19908;-82
2021/12/24 05:10:37;;;;;;;;;;;4.20;99.90;;;;;;5082428;28;19915;-80
2021/12/24 05:13:04;;;;;;;;;;;4.20;99.90;;;;;;5101709;28;19917;-80
2021/12/24 05:15:30;;;;;;;;;;;4.20;99.90;;;;;;5065583;28;19927;-82
2021/12/24 05:23:06;;;;;;;;;;;4.20;99.90;;;;;;5105552;28;19903;-79
2021/12/24 05:25:41;;;;;;;;;;;4.20;99.90;;;;;;5099531;28;20367;-83
2021/12/24 05:28:07;;;;;;;;;;;4.20;99.90;;;;;;5066452;28;19908;-81
2021/12/24 05:30:32;;;;;;;;;;;4.20;99.90;;;;;;5062908;28;19919;-82
2021/12/24 05:32:58;;;;;;;;;;;4.20;99.90;;;;;;5063424;28;20015;-81
2021/12/24 05:35:24;;;;;;;;;;;4.20;99.90;;;;;;5083853;28;19966;-82
2021/12/24 05:37:49;;;;;;;;;;;4.20;99.90;;;;;;5066563;28;20007;-81
2021/12/24 05:40:15;;;;;;;;;;;4.20;99.90;;;;;;5080291;28;19916;-82
2021/12/24 05:42:40;;;;;;;;;;;4.20;99.90;;;;;;5064485;28;19955;-82
2021/12/24 05:45:07;;;;;;;;;;;4.10;99.90;;;;;;5067657;28;19957;-83
2021/12/24 05:47:33;;;;;;;;;;;4.20;99.90;;;;;;5082305;28;19946;-83
2021/12/24 05:50:00;;;;;;;;;;;4.10;99.90;;;;;;5085043;28;19948;-81
2021/12/24 05:52:26;;;;;;;;;;;4.10;99.90;;;;;;5061863;28;20422;-80
2021/12/24 05:54:51;;;;;;;;;;;4.00;99.90;;;;;;5065370;28;20027;-84
2021/12/24 05:57:17;;;;;;;;;;;4.10;99.90;;;;;;5073214;28;19915;-82
2021/12/24 05:59:42;;;;;;;;;;;4.10;99.90;;;;;;5080931;28;20329;-83
2021/12/24 06:02:08;;;;;;;;;;;4.10;99.90;;;;;;5079277;28;19916;-83
2021/12/24 06:04:34;;;;;;;;;;;4.10;99.90;;;;;;5062932;28;19912;-83
2021/12/24 06:06:59;;;;;;;;;;;4.10;99.90;;;;;;5068571;28;19977;-82
2021/12/24 06:09:25;;;;;;;;;;;4.10;99.90;;;;;;5067887;28;20287;-82
2021/12/24 06:11:50;;;;;;;;;;;4.10;99.90;;;;;;5068772;28;19919;-82
2021/12/24 06:14:16;;;;;;;;;;;4.00;99.90;;;;;;5087513;28;19908;-81
2021/12/24 06:16:49;;;;;;;;;;;4.00;99.90;;;;;;5071624;28;19980;-82
2021/12/24 06:19:15;;;;;;;;;;;4.00;99.90;;;;;;5086705;28;19917;-84
2021/12/24 06:21:41;;;;;;;;;;;4.00;99.90;;;;;;5083767;28;20012;-83
2021/12/24 06:24:07;;;;;;;;;;;4.00;99.90;;;;;;5084889;28;20359;-84
2021/12/24 06:26:33;;;;;;;;;;;4.10;99.90;;;;;;5067081;28;20363;-81
2021/12/24 06:28:58;;;;;;;;;;;4.00;99.90;;;;;;5065757;28;19913;-83
2021/12/24 06:31:24;;;;;;;;;;;4.00;99.90;;;;;;5067688;28;19916;-82
2021/12/24 06:33:49;;;;;;;;;;;4.00;99.90;;;;;;5065758;28;19916;-82
2021/12/24 06:36:15;;;;;;;;;;;4.00;99.90;;;;;;5087701;28;19920;-82
2021/12/24 06:38:41;;;;;;;;;;;4.00;99.90;;;;;;5085401;28;19912;-83
2021/12/24 06:41:08;;;;;;;;;;;4.00;99.90;;;;;;5082026;28;20019;-83
2021/12/24 06:43:35;;;;;;;;;;;4.00;99.90;;;;;;5084534;28;20347;-83
2021/12/24 06:46:00;;;;;;;;;;;4.10;99.90;;;;;;5052918;28;19973;-83
2021/12/24 06:48:26;;;;;;;;;;;4.10;99.90;;;;;;5085621;28;20367;-82
2021/12/24 06:50:52;;;;;;;;;;;4.10;99.90;;;;;;5084875;28;19912;-82
2021/12/24 06:53:17;;;;;;;;;;;4.20;99.90;;;;;;5066181;28;19961;-81
2021/12/24 06:55:43;;;;;;;;;;;4.20;99.90;;;;;;5086633;28;19908;-81
2021/12/24 06:58:08;;;;;;;;;;;4.20;99.90;;;;;;5084458;28;20044;-82
2021/12/24 07:00:35;;;;;;;;;;;4.20;99.90;;;;;;5066554;28;20307;-81
2021/12/24 07:03:00;;;;;;;;;;;4.20;99.90;;;;;;5064492;28;19912;-85
2021/12/24 07:05:26;;;;;;;;;;;4.20;99.90;;;;;;5085861;28;19915;-81
2021/12/24 07:07:51;;;;;;;;;;;4.20;99.90;;;;;;5085669;28;20302;-84
2021/12/24 07:10:17;;;;;;;;;;;4.10;99.90;;;;;;5081382;28;19905;-80
2021/12/24 07:12:42;;;;;;;;;;;4.20;99.90;;;;;;5067595;28;20287;-83
2021/12/24 07:15:08;;;;;;;;;;;4.20;99.90;;;;;;5084361;28;19962;-83
2021/12/24 07:17:34;;;;;;;;;;;4.20;99.90;;;;;;5084311;28;19912;-82
2021/12/24 07:19:59;;;;;;;;;;;4.20;99.90;;;;;;5081445;28;19954;-82
2021/12/24 07:22:25;;;;;;;;;;;4.10;99.90;;;;;;5083802;28;20367;-85
2021/12/24 07:24:50;;;;;;;;;;;4.10;99.90;;;;;;5064111;28;19915;-81
2021/12/24 07:27:16;;;;;;;;;;;4.10;99.90;;;;;;5085594;28;19923;-81
2021/12/24 07:29:41;;;;;;;;;;;4.00;99.90;;;;;;5065991;28;19908;-82
2021/12/24 07:32:07;;;;;;;;;;;4.10;99.90;;;;;;5065636;28;19913;-82
2021/12/24 07:34:33;;;;;;;;;;;4.10;99.90;;;;;;5082183;28;20339;-81
2021/12/24 07:36:58;;;;;;;;;;;4.10;99.90;;;;;;5084882;28;20010;-83
2021/12/24 07:39:24;;;;;;;;;;;4.10;99.90;;;;;;5085345;28;20381;-81
2021/12/24 07:41:50;;;;;;;;;;;4.10;99.90;;;;;;5066046;28;19967;-82
2021/12/24 07:44:17;;;;;;;;;;;4.10;99.90;;;;;;5074331;28;19919;-83
2021/12/24 07:46:48;;;;;;;;;;;4.20;99.90;;;;;;5083371;28;19908;-83
2021/12/24 07:49:29;;;;;;;;;;;4.10;99.90;;;;;;5085694;28;19914;-82
2021/12/24 07:52:12;;;;;;;;;;;4.10;99.90;;;;;;5088427;28;20018;-82
2021/12/24 07:54:39;;;;;;;;;;;4.10;99.90;;;;;;5084139;28;19908;-82
2021/12/24 07:57:05;;;;;;;;;;;4.10;99.90;;;;;;5085687;28;19961;-85
2021/12/24 07:59:31;;;;;;;;;;;4.10;99.90;;;;;;5085833;28;20015;-85
2021/12/24 08:01:56;;;;;;;;;;;4.10;99.90;;;;;;5085623;28;20002;-85
2021/12/24 08:04:23;;;;;;;;;;;4.10;99.90;;;;;;5073883;28;19946;-86
2021/12/24 08:06:49;;;;;;;;;;;4.10;99.90;;;;;;5073746;28;19912;-88
2021/12/24 08:09:15;;;;;;;;;;;4.10;99.90;;;;;;5087239;28;20303;-89
2021/12/24 08:11:41;;;;;;;;;;;4.10;99.90;;;;;;5084634;28;19928;-88
2021/12/24 08:14:07;;;;;;;;;;;4.10;99.90;;;;;;5086662;28;19908;-85
2021/12/24 08:16:34;;;;;;;;;;;4.10;99.90;;;;;;5081962;28;19915;-86
2021/12/24 08:19:00;;;;;;;;;;;4.10;99.90;;;;;;5084450;28;19981;-85
2021/12/24 08:21:26;;;;;;;;;;;4.20;99.90;;;;;;5067747;28;19912;-86
2021/12/24 08:23:51;;;;;;;;;;;4.20;99.90;;;;;;5066887;28;19912;-88
2021/12/24 08:26:18;;;;;;;;;;;4.20;99.90;;;;;;5085032;28;19923;-87
2021/12/24 08:28:44;;;;;;;;;;;4.20;99.90;;;;;;5064562;28;20381;-88
2021/12/24 08:31:10;;;;;;;;;;;4.10;99.90;;;;;;5068254;28;19961;-86
2021/12/24 08:33:35;;;;;;;;;;;4.00;99.90;;;;;;5083635;28;19978;-87
2021/12/24 08:36:05;;;;;;;;;;;3.90;99.90;;;;;;5081573;28;19915;-87
2021/12/24 08:38:31;;;;;;;;;;;3.80;99.90;;;;;;5083913;28;19994;-88
2021/12/24 08:40:56;;;;;;;;;;;3.80;99.90;;;;;;5077401;28;19916;-84
2021/12/24 08:43:22;;;;;;;;;;;3.80;99.90;;;;;;5080003;28;19916;-85
2021/12/24 08:45:48;;;;;;;;;;;3.70;99.90;;;;;;5075954;28;19930;-87
2021/12/24 08:48:13;;;;;;;;;;;3.60;99.90;;;;;;5063763;28;19928;-84
2021/12/24 08:50:39;;;;;;;;;;;3.60;99.90;;;;;;5069897;28;19908;-86
2021/12/24 08:53:06;;;;;;;;;;;3.50;99.90;;;;;;5087427;28;19975;-88
2021/12/24 08:55:33;;;;;;;;;;;3.50;99.90;;;;;;5087912;28;19908;-87
2021/12/24 08:57:58;;;;;;;;;;;3.50;99.90;;;;;;5053576;28;20299;-89
2021/12/24 09:00:24;;;;;;;;;;;3.40;99.90;;;;;;5075051;28;19912;-90
2021/12/24 09:02:49;;;;;;;;;;;3.50;99.90;;;;;;5078698;28;19907;-89
2021/12/24 09:05:15;;;;;;;;;;;3.50;99.90;;;;;;5065933;28;20000;-87
2021/12/24 09:07:41;;;;;;;;;;;3.50;99.90;;;;;;5069055;28;19912;-88
2021/12/24 09:10:07;;;;;;;;;;;3.50;99.90;;;;;;5088514;28;19912;-88
2021/12/24 09:12:33;;;;;;;;;;;3.50;99.90;;;;;;5079815;28;20025;-89
2021/12/24 09:14:58;;;;;;;;;;;3.50;99.90;;;;;;5070317;28;19912;-87
2021/12/24 09:17:27;;;;;;;;;;;3.60;99.90;;;;;;5069179;28;19915;-89
2021/12/24 09:19:54;;;;;;;;;;;3.50;99.90;;;;;;5084362;28;19978;-87
2021/12/24 09:22:23;;;;;;;;;;;3.60;99.90;;;;;;5068978;28;19917;-88
2021/12/24 09:24:50;;;;;;;;;;;3.60;99.90;;;;;;5070315;28;19962;-87
2021/12/24 09:27:16;;;;;;;;;;;3.60;99.90;;;;;;5071114;28;19935;-88
2021/12/24 09:29:42;;;;;;;;;;;3.60;99.90;;;;;;5071323;28;20370;-88
2021/12/24 09:32:08;;;;;;;;;;;3.60;99.90;;;;;;5083213;28;19912;-89
2021/12/24 09:34:34;;;;;;;;;;;3.60;99.90;;;;;;5071586;28;19964;-89
2021/12/24 09:36:59;;;;;;;;;;;3.70;99.90;;;;;;5084778;28;19919;-89
2021/12/24 09:39:25;;;;;;;;;;;3.70;99.90;;;;;;5071082;28;19915;-87
2021/12/24 09:41:50;;;;;;;;;;;3.70;99.90;;;;;;5090215;28;19920;-90
2021/12/24 09:44:16;;;;;;;;;;;3.70;99.90;;;;;;5077040;28;19908;-89
2021/12/24 09:46:43;;;;;;;;;;;3.70;99.90;;;;;;5093309;28;19919;-88
2021/12/24 09:49:12;;;;;;;;;;;3.70;99.90;;;;;;5075216;28;19908;-90
2021/12/24 09:51:41;;;;;;;;;;;3.60;99.90;;;;;;5073991;28;19916;-89
2021/12/24 09:54:13;;;;;;;;;;;3.70;99.90;;;;;;5087922;28;20062;-89
2021/12/24 09:56:39;;;;;;;;;;;3.80;99.90;;;;;;5088534;28;19919;-89
2021/12/24 09:59:05;;;;;;;;;;;3.90;99.90;;;;;;5090823;28;20010;-88
2021/12/24 10:01:32;;;;;;;;;;;3.90;99.90;;;;;;5077073;28;20314;-89
2021/12/24 10:04:02;;;;;;;;;;;4.00;99.90;;;;;;5089241;28;19972;-88
2021/12/24 10:06:28;;;;;;;;;;;4.00;99.90;;;;;;5075008;28;20423;-86
2021/12/24 10:09:04;;;;;;;;;;;4.00;99.90;;;;;;5085684;28;19951;-89
2021/12/24 10:11:30;;;;;;;;;;;4.10;99.90;;;;;;5087832;28;19909;-87
2021/12/24 10:14:06;;;;;;;;;;;4.10;99.90;;;;;;5083576;28;19978;-90
2021/12/24 10:16:32;;;;;;;;;;;4.20;99.90;;;;;;5061503;28;19913;-86
2021/12/24 10:19:00;;;;;;;;;;;4.20;99.90;;;;;;5085994;28;19934;-87
2021/12/24 10:21:27;;;;;;;;;;;4.30;99.90;;;;;;5067745;28;19908;-87
2021/12/24 10:23:57;;;;;;;;;;;4.40;99.90;;;;;;5070005;28;19957;-86
2021/12/24 10:26:27;;;;;;;;;;;4.40;99.90;;;;;;5088744;28;19922;-85
2021/12/24 10:28:53;;;;;;;;;;;4.50;99.90;;;;;;5082929;28;19908;-88
2021/12/24 10:31:20;;;;;;;;;;;4.50;99.90;;;;;;5080999;28;19995;-87
2021/12/24 10:34:04;;;;;;;;;;;4.60;99.90;;;;;;5085730;28;19919;-83
2021/12/24 10:36:30;;;;;;;;;;;4.60;99.90;;;;;;5084821;28;19930;-80
2021/12/24 10:38:55;;;;;;;;;;;4.60;99.90;;;;;;5085917;28;19912;-85
2021/12/24 10:41:21;;;;;;;;;;;4.60;99.90;;;;;;5082480;28;19966;-88
2021/12/24 10:43:46;;;;;;;;;;;4.60;99.90;;;;;;5084519;28;19915;-88
2021/12/24 10:46:15;;;;;;;;;;;4.60;99.90;;;;;;5085604;28;19999;-88
2021/12/24 10:48:48;;;;;;;;;;;4.60;99.90;;;;;;5062859;28;19958;-87
2021/12/24 10:51:31;;;;;;;;;;;4.60;99.90;;;;;;5086011;28;19950;-87
2021/12/24 10:54:06;;;;;;;;;;;4.60;99.90;;;;;;5089152;28;19961;-89
2021/12/24 10:56:32;;;;;;;;;;;4.60;99.90;;;;;;5083862;28;20330;-88
2021/12/24 10:58:57;;;;;;;;;;;4.60;99.90;;;;;;5085448;28;19915;-87
2021/12/24 11:01:23;;;;;;;;;;;4.60;99.90;;;;;;5088864;28;19936;-89
2021/12/24 11:03:49;;;;;;;;;;;4.50;99.90;;;;;;5084411;28;20340;-79
2021/12/24 11:06:15;;;;;;;;;;;4.60;99.90;;;;;;5084490;28;19940;-80
2021/12/24 11:08:41;;;;;;;;;;;4.60;99.90;;;;;;5079892;28;19924;-86
2021/12/24 11:11:08;;;;;;;;;;;4.70;99.90;;;;;;5082536;28;19923;-89
2021/12/24 11:13:38;;;;;;;;;;;4.60;99.90;;;;;;5088241;28;19930;-86
2021/12/24 11:16:05;;;;;;;;;;;4.60;99.90;;;;;;5064924;28;19919;-85
2021/12/24 11:18:34;;;;;;;;;;;4.70;99.90;;;;;;5087809;28;20010;-86
2021/12/24 11:21:01;;;;;;;;;;;4.70;99.90;;;;;;5084682;28;19916;-87
2021/12/24 11:23:28;;;;;;;;;;;4.70;99.90;;;;;;5083007;28;19995;-86
2021/12/24 11:25:55;;;;;;;;;;;4.60;99.90;;;;;;5062475;28;20317;-88
2021/12/24 11:28:23;;;;;;;;;;;4.70;99.90;;;;;;5083208;28;19916;-86
2021/12/24 11:31:09;;;;;;;;;;;4.70;99.90;;;;;;5065611;28;19919;-87
2021/12/24 11:33:37;;;;;;;;;;;4.70;99.90;;;;;;5066251;28;19915;-89
2021/12/24 11:36:04;;;;;;;;;;;4.70;99.90;;;;;;5046039;28;19996;-86
2021/12/24 11:38:32;;;;;;;;;;;4.70;99.90;;;;;;5063474;28;19962;-88
2021/12/24 11:40:59;;;;;;;;;;;4.80;99.90;;;;;;5063516;28;19938;-89
2021/12/24 11:43:29;;;;;;;;;;;4.80;99.90;;;;;;5068737;28;19926;-90
2021/12/24 11:45:59;;;;;;;;;;;4.80;99.90;;;;;;5081563;28;19943;-88
2021/12/24 11:48:27;;;;;;;;;;;4.80;99.90;;;;;;5078952;28;19916;-87
2021/12/24 11:50:53;;;;;;;;;;;4.80;99.90;;;;;;5061161;28;20011;-87
2021/12/24 11:53:18;;;;;;;;;;;4.80;99.90;;;;;;5068741;28;20002;-87
2021/12/24 11:55:48;;;;;;;;;;;4.80;99.90;;;;;;5068547;28;20409;-86
2021/12/24 11:58:21;;;;;;;;;;;4.90;99.90;;;;;;5087030;28;19920;-86
2021/12/24 12:00:48;;;;;;;;;;;4.90;99.90;;;;;;5083238;28;19912;-85
2021/12/24 12:03:39;;;;;;;;;;;4.90;99.90;;;;;;5070003;28;20406;-89
2021/12/24 12:06:08;;;;;;;;;;;4.90;99.90;;;;;;5059252;28;19912;-88
2021/12/24 12:08:39;;;;;;;;;;;4.90;99.90;;;;;;5112414;28;19931;-86
2021/12/24 12:11:05;;;;;;;;;;;4.90;99.90;;;;;;5094506;28;19908;-87
2021/12/24 12:13:42;;;;;;;;;;;5.00;99.90;;;;;;5090251;28;19918;-87
2021/12/24 12:16:10;;;;;;;;;;;5.00;99.90;;;;;;5087866;28;19981;-86
2021/12/24 12:18:48;;;;;;;;;;;4.90;99.90;;;;;;5074612;28;19912;-88
2021/12/24 12:21:14;;;;;;;;;;;4.90;99.90;;;;;;5085228;28;19912;-89
2021/12/24 12:23:46;;;;;;;;;;;4.90;99.90;;;;;;5089838;28;20146;-85
2021/12/24 12:26:30;;;;;;;;;;;5.00;99.90;;;;;;5085762;28;19909;-88
2021/12/24 12:29:14;;;;;;;;;;;4.90;99.90;;;;;;5086261;28;19918;-88
2021/12/24 12:31:39;;;;;;;;;;;4.80;99.90;;;;;;5075286;28;20383;-87
2021/12/24 12:34:25;;;;;;;;;;;4.80;99.90;;;;;;5070782;28;19923;-82
2021/12/24 12:36:51;;;;;;;;;;;4.80;99.90;;;;;;5084128;28;19916;-87
2021/12/24 12:39:26;;;;;;;;;;;4.90;99.90;;;;;;5074774;28;19999;-87
2021/12/24 12:41:52;;;;;;;;;;;4.70;99.90;;;;;;5086850;28;20069;-88
2021/12/24 12:44:19;;;;;;;;;;;4.80;99.90;;;;;;5089133;28;19962;-86
2021/12/24 12:46:47;;;;;;;;;;;4.80;99.90;;;;;;5057611;28;19919;-87
2021/12/24 12:49:17;;;;;;;;;;;4.80;99.90;;;;;;5082976;28;19954;-82
2021/12/24 12:51:59;;;;;;;;;;;4.80;99.90;;;;;;5086587;28;19915;-82
2021/12/24 12:54:29;;;;;;;;;;;4.90;99.90;;;;;;5085416;28;20029;-87
2021/12/24 12:57:10;;;;;;;;;;;4.80;99.90;;;;;;5086013;28;19929;-87
2021/12/24 12:59:35;;;;;;;;;;;4.80;99.90;;;;;;5082583;28;19912;-85
2021/12/24 13:02:01;;;;;;;;;;;4.80;99.90;;;;;;5081482;28;19919;-87
2021/12/24 13:04:27;;;;;;;;;;;4.70;99.90;;;;;;5073304;28;19915;-89
2021/12/24 13:06:53;;;;;;;;;;;4.70;99.90;;;;;;5087070;28;19916;-86
2021/12/24 13:09:21;;;;;;;;;;;4.70;99.90;;;;;;5060518;28;19908;-86
2021/12/24 13:11:48;;;;;;;;;;;4.60;99.90;;;;;;5062899;28;19988;-86
2021/12/24 13:14:15;;;;;;;;;;;4.60;99.90;;;;;;5085709;28;19919;-87
2021/12/24 13:16:48;;;;;;;;;;;4.60;99.90;;;;;;5067904;28;19916;-87
2021/12/24 13:24:17;;;;;;;;;;;4.50;99.90;;;;;;5089430;23;20394;-85
2021/12/24 13:26:44;;;;;;;;;;;4.50;99.90;;;;;;5079127;28;19908;-87
2021/12/24 13:29:16;;;;;;;;;;;4.50;99.90;;;;;;5069850;28;19909;-86
2021/12/24 13:31:48;;;;;;;;;;;4.50;99.90;;;;;;5069203;28;19990;-84
2021/12/24 13:34:16;;;;;;;;;;;4.50;99.90;;;;;;5069354;28;19908;-87
2021/12/24 13:36:41;;;;;;;;;;;4.50;99.90;;;;;;5067339;28;19962;-87
2021/12/24 13:39:09;;;;;;;;;;;4.50;99.90;;;;;;5070819;28;19916;-87
2021/12/24 13:41:35;;;;;;;;;;;4.50;99.90;;;;;;5067476;28;20619;-88
2021/12/24 13:44:00;;;;;;;;;;;4.50;99.90;;;;;;5071956;28;19915;-86
2021/12/24 13:46:29;;;;;;;;;;;4.50;99.90;;;;;;5069226;28;19970;-87
2021/12/24 13:54:33;;;;;;;;;;;4.50;99.90;;;;;;5067071;28;20386;-86
2021/12/24 13:56:59;;;;;;;;;;;4.50;99.90;;;;;;5069179;28;20277;-86
2021/12/24 13:59:25;;;;;;;;;;;4.50;99.90;;;;;;5074169;28;21517;-88
2021/12/24 14:01:51;;;;;;;;;;;4.50;99.90;;;;;;5062526;28;19970;-86
2021/12/24 14:04:18;;;;;;;;;;;4.50;99.90;;;;;;5070201;28;19912;-86
2021/12/24 14:06:45;;;;;;;;;;;4.50;99.90;;;;;;5052198;28;20007;-85
2021/12/24 14:09:15;;;;;;;;;;;4.50;99.90;;;;;;5063700;28;19908;-87
2021/12/24 14:11:42;;;;;;;;;;;4.50;99.90;;;;;;5063341;28;20269;-87
2021/12/24 14:14:15;;;;;;;;;;;4.40;99.90;;;;;;5056322;28;19916;-87
2021/12/24 14:20:26;;;;;;;;;;;4.50;99.90;;;;;;5033782;28;19916;-89
2021/12/24 14:22:30;;;;;;;;;;;4.50;99.90;;;;;;5054344;28;19948;-89
2021/12/24 14:25:07;;;;;;;;;;;4.40;99.90;;;;;;5083540;28;19916;-87
2021/12/24 14:27:34;;;;;;;;;;;4.40;99.90;;;;;;5050511;28;20268;-89
2021/12/24 14:30:03;;;;;;;;;;;4.40;99.90;;;;;;5061926;28;19909;-88
2021/12/24 14:32:30;;;;;;;;;;;4.40;99.90;;;;;;5063738;28;19917;-88
2021/12/24 14:34:57;;;;;;;;;;;4.40;99.90;;;;;;5081386;28;20306;-87
2021/12/24 14:37:34;;;;;;;;;;;4.40;99.90;;;;;;5049186;28;19912;-89
2021/12/24 14:40:06;;;;;;;;;;;4.30;99.90;;;;;;5044575;28;20375;-87
2021/12/24 14:42:42;;;;;;;;;;;4.30;99.90;;;;;;5071809;28;19917;-87
2021/12/24 14:45:14;;;;;;;;;;;4.30;99.90;;;;;;5062154;28;20006;-87
2021/12/24 14:47:40;;;;;;;;;;;4.40;99.90;;;;;;5068340;28;19931;-85
2021/12/24 14:50:09;;;;;;;;;;;4.30;99.90;;;;;;5061890;28;20316;-87
2021/12/24 14:52:35;;;;;;;;;;;4.30;99.90;;;;;;5048146;28;19935;-87
2021/12/24 14:55:12;;;;;;;;;;;4.30;99.90;;;;;;5066112;28;19912;-85
2021/12/24 14:57:44;;;;;;;;;;;4.30;99.90;;;;;;5060375;28;19909;-87
2021/12/24 15:00:12;;;;;;;;;;;4.20;99.90;;;;;;5063631;28;19952;-87
2021/12/24 15:02:42;;;;;;;;;;;4.10;99.90;;;;;;5060105;28;20295;-89
2021/12/24 15:05:08;;;;;;;;;;;4.20;99.90;;;;;;5045134;28;19912;-88
2021/12/24 15:07:34;;;;;;;;;;;4.20;99.90;;;;;;5080180;28;20415;-86
2021/12/24 15:10:08;;;;;;;;;;;4.20;99.90;;;;;;5060276;28;19991;-86
2021/12/24 15:12:39;;;;;;;;;;;4.20;99.90;;;;;;5068225;28;19948;-86
2021/12/24 15:15:06;;;;;;;;;;;4.30;99.90;;;;;;5078259;28;20274;-87
2021/12/24 15:17:41;;;;;;;;;;;4.20;99.90;;;;;;5064734;28;19912;-86
2021/12/24 15:20:07;;;;;;;;;;;4.20;99.90;;;;;;5064992;28;19969;-88
2021/12/24 15:22:33;;;;;;;;;;;4.10;99.90;;;;;;5044307;28;20320;-87
2021/12/24 15:24:59;;;;;;;;;;;4.20;99.90;;;;;;5065692;28;20290;-87
2021/12/24 15:27:31;;;;;;;;;;;4.20;99.90;;;;;;5060967;28;19935;-87
2021/12/24 15:30:00;;;;;;;;;;;4.20;99.90;;;;;;5066258;28;19977;-87
2021/12/24 15:32:26;;;;;;;;;;;4.20;99.90;;;;;;5067021;28;20352;-85
2021/12/24 15:34:52;;;;;;;;;;;4.20;99.90;;;;;;5065064;28;19908;-88
2021/12/24 15:37:18;;;;;;;;;;;4.20;99.90;;;;;;5062512;28;20354;-88
2021/12/24 15:39:44;;;;;;;;;;;4.20;99.90;;;;;;5075065;28;19920;-86
2021/12/24 15:42:11;;;;;;;;;;;4.20;99.90;;;;;;5063168;28;19916;-84
2021/12/24 15:44:42;;;;;;;;;;;4.10;99.90;;;;;;5046665;28;19914;-85
2021/12/24 15:47:08;;;;;;;;;;;4.10;99.90;;;;;;5063613;28;20053;-87
2021/12/24 15:49:34;;;;;;;;;;;4.10;99.90;;;;;;5060813;28;19966;-86
2021/12/24 15:52:00;;;;;;;;;;;4.20;99.90;;;;;;5045835;28;19960;-88
2021/12/24 15:54:26;;;;;;;;;;;4.20;99.90;;;;;;5079219;28;19916;-84
2021/12/24 15:56:52;;;;;;;;;;;4.10;99.90;;;;;;5074385;28;20397;-86
2021/12/24 15:59:18;;;;;;;;;;;4.20;99.90;;;;;;5064164;28;19916;-88
2021/12/24 16:01:43;;;;;;;;;;;4.20;99.90;;;;;;5062603;28;19917;-86
2021/12/24 16:04:09;;;;;;;;;;;4.10;99.90;;;;;;5042451;28;19986;-87
2021/12/24 16:06:35;;;;;;;;;;;4.10;99.90;;;;;;5063206;28;19912;-88
2021/12/24 16:09:01;;;;;;;;;;;4.10;99.90;;;;;;5063539;28;20428;-86
2021/12/24 16:11:26;;;;;;;;;;;4.10;99.90;;;;;;5053366;28;19916;-89
2021/12/24 16:13:52;;;;;;;;;;;4.10;99.90;;;;;;5065315;28;19908;-86
2021/12/24 16:16:23;;;;;;;;;;;4.10;99.90;;;;;;5046692;28;20382;-86
2021/12/24 16:18:53;;;;;;;;;;;4.00;99.90;;;;;;5046624;28;19967;-86
2021/12/24 16:21:18;;;;;;;;;;;4.00;99.90;;;;;;5061424;28;19920;-86
2021/12/24 16:23:44;;;;;;;;;;;4.10;99.90;;;;;;5064968;28;19917;-88
2021/12/24 16:26:10;;;;;;;;;;;4.10;99.90;;;;;;5049349;28;19916;-87